CheckWX is a tool to help pilots better visualize weather data.  It is not intended as a substitute for an official pre-flight weather briefing.

20:45:03 UTC

KIKT METAR
Nakika
Nakika, Mississippi, USA
Current

30 mins ago

KIKT 262015Z AUTO 06006KT 9SM CLR 31/25 A3014 RMK A01
Observed
Jun-26 @ 20:15 UTC
Wind
  • 060° at 6 KTS
Visibility
9 SM
Flight Rules
VFR
Cloud Levels
  • Clear skies
Temperature
31°C / 88°F
Dewpoint
25°C / 77°F
Heat Index
38°C / 100°F
Humidity
70%
Altimeter
30.14" Hg
Pressure
1020.62 hPa
Previous

50 mins ago

KIKT 261955Z AUTO 07009KT 9SM CLR 31/25 A3014 RMK A01
Observed
Jun-26 @ 19:55 UTC
Wind
  • 070° at 9 KTS
Visibility
9 SM
Flight Rules
VFR
Cloud Levels
  • Clear skies
Temperature
31°C / 88°F
Dewpoint
25°C / 77°F
Heat Index
38°C / 100°F
Humidity
70%
Altimeter
30.14" Hg
Pressure
1020.62 hPa
Previous

1 hour ago

KIKT 261935Z AUTO 07008KT 9SM CLR 31/25 A3015 RMK A01
Observed
Jun-26 @ 19:35 UTC
Wind
  • 070° at 8 KTS
Visibility
9 SM
Flight Rules
VFR
Cloud Levels
  • Clear skies
Temperature
31°C / 88°F
Dewpoint
25°C / 77°F
Heat Index
38°C / 100°F
Humidity
70%
Altimeter
30.15" Hg
Pressure
1021.02 hPa